Time;durP1;ratioP1;P1;durP2;ratioP2;P2;SDS_P1;SDS_P2;PMS_P1;PMS_P2;Temp;Humidity;BMP_temperature;BMP_pressure;BME280_temperature;BME280_humidity;BME280_pressure;Samples;Min_cycle;Max_cycle;Signal;HPM_P1;HPM_P2
2021/11/22 00:02:14;;;;;;;22.53;14.53;;;;;;;5.86;100.00;98289.41;5033766;28;20052;-57
2021/11/22 00:04:40;;;;;;;23.90;14.67;;;;;;;5.78;100.00;98286.06;5034399;28;20034;-58
2021/11/22 00:07:05;;;;;;;22.93;13.03;;;;;;;5.85;100.00;98292.84;5035840;28;20083;-56
2021/11/22 00:09:33;;;;;;;23.80;13.97;;;;;;;5.82;100.00;98291.13;5035734;28;20056;-55
2021/11/22 00:11:59;;;;;;;25.20;15.20;;;;;;;5.80;100.00;98284.38;5034157;28;20025;-58
2021/11/22 00:14:24;;;;;;;20.67;12.43;;;;;;;5.86;100.00;98284.34;5036579;28;20032;-56
2021/11/22 00:16:49;;;;;;;20.40;11.97;;;;;;;5.83;100.00;98281.81;5034159;28;20399;-59
2021/11/22 00:19:15;;;;;;;20.10;12.30;;;;;;;5.78;100.00;98281.00;5034725;28;20033;-56
2021/11/22 00:21:40;;;;;;;22.23;12.87;;;;;;;5.85;100.00;98287.75;5033416;28;20025;-57
2021/11/22 00:24:06;;;;;;;21.40;12.77;;;;;;;5.89;100.00;98290.31;5034142;28;20029;-58
2021/11/22 00:26:31;;;;;;;23.57;14.03;;;;;;;5.89;100.00;98295.41;5038163;28;20029;-57
2021/11/22 00:28:57;;;;;;;24.10;14.03;;;;;;;5.92;100.00;98300.44;5033670;28;20052;-56
2021/11/22 00:31:23;;;;;;;21.13;12.30;;;;;;;5.96;100.00;98302.13;5034240;28;20041;-57
2021/11/22 00:33:50;;;;;;;24.60;13.10;;;;;;;5.95;100.00;98294.50;5034295;28;20025;-54
2021/11/22 00:36:16;;;;;;;21.33;13.67;;;;;;;5.94;100.00;98297.91;5036973;28;20036;-55
2021/11/22 00:38:41;;;;;;;24.40;14.00;;;;;;;5.90;100.00;98301.28;5033523;28;20083;-54
2021/11/22 00:41:08;;;;;;;27.57;15.17;;;;;;;5.92;100.00;98304.69;5032786;28;20446;-56
2021/11/22 00:43:33;;;;;;;20.43;13.50;;;;;;;5.97;100.00;98300.44;5035581;28;20032;-55
2021/11/22 00:45:59;;;;;;;24.90;13.70;;;;;;;5.97;100.00;98305.53;5035601;28;20057;-56
2021/11/22 00:48:24;;;;;;;26.50;14.10;;;;;;;5.94;100.00;98308.09;5032647;28;20113;-53
2021/11/22 00:50:52;;;;;;;21.97;13.10;;;;;;;5.94;100.00;98306.34;5032954;28;20037;-56
2021/11/22 00:53:17;;;;;;;24.23;13.33;;;;;;;5.87;100.00;98312.34;5035042;28;20025;-58
2021/11/22 00:55:43;;;;;;;24.50;14.83;;;;;;;5.97;100.00;98308.06;5036347;28;20037;-57
2021/11/22 00:58:08;;;;;;;23.97;14.20;;;;;;;6.00;100.00;98309.72;5032819;28;20034;-58
2021/11/22 01:00:34;;;;;;;23.70;13.37;;;;;;;5.96;100.00;98306.38;5031998;28;20161;-60
2021/11/22 01:03:00;;;;;;;25.10;14.97;;;;;;;5.94;100.00;98308.09;5036273;28;20480;-58
2021/11/22 01:05:26;;;;;;;23.57;12.77;;;;;;;5.90;100.00;98311.47;5036319;28;20033;-59
2021/11/22 01:07:52;;;;;;;25.83;15.57;;;;;;;5.93;100.00;98307.25;5030859;28;20026;-60
2021/11/22 01:10:18;;;;;;;28.53;13.93;;;;;;;5.93;100.00;98314.03;5032595;28;20099;-59
2021/11/22 01:12:45;;;;;;;21.43;14.00;;;;;;;5.96;100.00;98312.31;5037433;28;20112;-59
2021/11/22 01:15:15;;;;;;;27.07;13.63;;;;;;;5.93;100.00;98309.78;5038341;28;20037;-59
2021/11/22 01:17:41;;;;;;;23.73;15.43;;;;;;;5.90;100.00;98317.41;5040497;28;20047;-59
2021/11/22 01:20:10;;;;;;;27.67;15.97;;;;;;;5.92;100.00;98314.88;5037695;28;20616;-60
2021/11/22 01:22:37;;;;;;;26.57;15.57;;;;;;;5.95;100.00;98320.78;5043190;28;20029;-60
2021/11/22 01:25:03;;;;;;;25.87;14.43;;;;;;;5.90;100.00;98319.09;5042462;28;20193;-59
2021/11/22 01:27:28;;;;;;;26.67;15.13;;;;;;;5.82;100.00;98323.34;5037140;28;20379;-58
2021/11/22 01:29:54;;;;;;;26.90;14.20;;;;;;;5.86;100.00;98323.38;5037615;28;20036;-59
2021/11/22 01:32:19;;;;;;;26.37;15.70;;;;;;;5.93;100.00;98322.50;5042511;28;20036;-59
2021/11/22 01:34:45;;;;;;;27.17;15.83;;;;;;;5.89;100.00;98330.16;5038415;28;20034;-59
2021/11/22 01:37:11;;;;;;;29.73;17.33;;;;;;;5.81;100.00;98326.78;5034910;28;20035;-57
2021/11/22 01:39:36;;;;;;;33.20;18.83;;;;;;;5.67;100.00;98334.47;5039346;28;20043;-58
2021/11/22 01:42:02;;;;;;;32.40;17.20;;;;;;;5.79;100.00;98341.19;5040979;28;20025;-58
2021/11/22 01:44:27;;;;;;;33.47;19.03;;;;;;;5.79;100.00;98328.47;5038818;28;20203;-60
2021/11/22 01:46:53;;;;;;;39.57;18.07;;;;;;;5.80;100.00;98333.56;5039142;28;20242;-60
2021/11/22 01:49:19;;;;;;;35.50;17.83;;;;;;;5.76;100.00;98334.44;5043048;28;20557;-60
2021/11/22 01:51:46;;;;;;;31.37;16.37;;;;;;;5.85;100.00;98339.47;5042728;28;20036;-59
2021/11/22 01:54:12;;;;;;;30.20;16.20;;;;;;;5.82;100.00;98344.56;5039023;28;20033;-60
2021/11/22 01:56:38;;;;;;;35.13;17.13;;;;;;;5.83;100.00;98345.41;5035592;28;20040;-60
2021/11/22 01:59:05;;;;;;;29.13;17.70;;;;;;;5.88;100.00;98336.09;5039856;28;20056;-60
2021/11/22 02:01:30;;;;;;;28.70;15.73;;;;;;;5.86;100.00;98340.28;5042982;28;20479;-59
2021/11/22 02:03:56;;;;;;;27.03;16.30;;;;;;;5.87;100.00;98335.25;5037086;28;20044;-59
2021/11/22 02:06:22;;;;;;;27.77;15.50;;;;;;;5.87;100.00;98334.41;5037933;28;20037;-60
2021/11/22 02:08:48;;;;;;;29.93;15.40;;;;;;;5.88;100.00;98336.09;5040724;28;20037;-59
2021/11/22 02:11:14;;;;;;;26.30;15.47;;;;;;;5.87;100.00;98329.31;5039631;28;20172;-60
2021/11/22 02:13:41;;;;;;;27.93;15.80;;;;;;;5.88;100.00;98323.38;5037000;28;20038;-56
2021/11/22 02:16:07;;;;;;;26.63;15.07;;;;;;;5.84;100.00;98330.16;5035931;28;20051;-55
2021/11/22 02:18:32;;;;;;;27.07;14.50;;;;;;;5.82;100.00;98326.75;5036729;28;20033;-57
2021/11/22 02:20:58;;;;;;;26.60;14.83;;;;;;;5.88;100.00;98333.56;5037911;28;20132;-57
2021/11/22 02:23:24;;;;;;;29.13;16.27;;;;;;;5.79;100.00;98336.09;5035445;28;20535;-57
2021/11/22 02:25:49;;;;;;;26.30;15.17;;;;;;;5.86;100.00;98342.84;5035060;28;20037;-58
2021/11/22 02:28:15;;;;;;;27.77;14.83;;;;;;;5.85;100.00;98339.47;5038020;28;20091;-57
2021/11/22 02:30:44;;;;;;;27.77;15.23;;;;;;;5.80;100.00;98341.19;5039065;28;20060;-55
2021/11/22 02:33:13;;;;;;;25.73;14.60;;;;;;;5.90;100.00;98347.09;5034944;28;20034;-57
2021/11/22 02:35:43;;;;;;;27.07;14.00;;;;;;;5.90;100.00;98350.47;5035335;28;20031;-58
2021/11/22 02:38:08;;;;;;;24.47;13.73;;;;;;;5.91;100.00;98356.41;5037262;28;20033;-57
2021/11/22 02:40:34;;;;;;;27.33;15.67;;;;;;;5.92;100.00;98365.75;5038885;28;20033;-57
2021/11/22 02:42:59;;;;;;;26.87;15.67;;;;;;;5.81;100.00;98367.47;5036570;28;20033;-56
2021/11/22 02:45:25;;;;;;;29.50;15.40;;;;;;;5.81;100.00;98359.84;5036670;28;20049;-57
2021/11/22 02:47:51;;;;;;;23.87;13.63;;;;;;;5.87;100.00;98370.00;5037565;28;20040;-58
2021/11/22 02:50:20;;;;;;;22.17;13.40;;;;;;;5.80;100.00;98363.22;5033403;28;20053;-56
2021/11/22 02:52:48;;;;;;;24.43;13.43;;;;;;;5.78;100.00;98362.38;5033915;28;20403;-56
2021/11/22 02:55:15;;;;;;;28.10;14.77;;;;;;;5.68;100.00;98363.28;5040845;28;20045;-56
2021/11/22 02:57:42;;;;;;;19.53;12.30;;;;;;;5.66;100.00;98365.81;5035790;28;20379;-56
2021/11/22 03:00:11;;;;;;;22.33;12.77;;;;;;;5.61;100.00;98374.31;5037122;28;20029;-58
2021/11/22 03:02:37;;;;;;;23.07;11.80;;;;;;;5.65;100.00;98363.28;5033529;28;20034;-55
2021/11/22 03:05:04;;;;;;;26.00;12.53;;;;;;;5.65;100.00;98371.75;5039198;28;20525;-58
2021/11/22 03:07:31;;;;;;;21.53;13.03;;;;;;;5.70;100.00;98364.13;5038263;28;20029;-58
2021/11/22 03:09:56;;;;;;;23.50;13.50;;;;;;;5.76;100.00;98366.66;5036944;28;20410;-58
2021/11/22 03:12:22;;;;;;;23.93;14.03;;;;;;;5.75;100.00;98357.31;5037876;28;20083;-55
2021/11/22 03:14:47;;;;;;;23.43;13.67;;;;;;;5.71;100.00;98355.63;5036065;28;20075;-57
2021/11/22 03:17:13;;;;;;;21.40;12.97;;;;;;;5.64;100.00;98352.28;5038832;28;20037;-56
2021/11/22 03:19:38;;;;;;;21.43;13.30;;;;;;;5.73;100.00;98344.59;5035722;28;20453;-58
2021/11/22 03:22:05;;;;;;;21.37;12.23;;;;;;;5.80;100.00;98355.59;5034706;28;20029;-58
2021/11/22 03:24:30;;;;;;;22.87;11.90;;;;;;;5.76;100.00;98359.00;5037630;28;20071;-57
2021/11/22 03:26:56;;;;;;;22.80;12.53;;;;;;;5.65;100.00;98364.13;5043905;28;20065;-57
2021/11/22 03:29:22;;;;;;;23.07;13.80;;;;;;;5.63;100.00;98365.84;5035021;28;20036;-57
2021/11/22 03:31:47;;;;;;;23.17;12.57;;;;;;;5.64;100.00;98377.72;5035923;28;20180;-54
2021/11/22 03:34:14;;;;;;;21.33;12.33;;;;;;;5.49;100.00;98372.66;5036316;28;20037;-56
2021/11/22 03:36:40;;;;;;;19.90;12.33;;;;;;;5.49;100.00;98377.75;5040256;28;20032;-56
2021/11/22 03:39:11;;;;;;;23.57;14.20;;;;;;;5.58;100.00;98384.50;5031343;28;20120;-54
2021/11/22 03:41:37;;;;;;;22.53;12.90;;;;;;;5.58;100.00;98385.34;5037417;28;20029;-54
2021/11/22 03:44:14;;;;;;;25.00;12.90;;;;;;;5.47;100.00;98387.91;5034525;28;20029;-56
2021/11/22 03:46:42;;;;;;;24.67;13.97;;;;;;;5.46;100.00;98391.34;5036186;28;20131;-53
2021/11/22 03:49:08;;;;;;;19.10;10.90;;;;;;;5.43;100.00;98387.97;5033557;28;20120;-54
2021/11/22 03:51:33;;;;;;;28.07;13.73;;;;;;;5.51;100.00;98388.78;5035983;28;20449;-54
2021/11/22 03:53:59;;;;;;;20.97;12.77;;;;;;;5.43;100.00;98390.50;5037577;28;20076;-57
2021/11/22 03:56:24;;;;;;;20.13;12.37;;;;;;;5.50;100.00;98392.16;5037513;28;20033;-58
2021/11/22 03:58:50;;;;;;;25.53;12.50;;;;;;;5.48;100.00;98393.84;5033346;28;20021;-57
2021/11/22 04:01:15;;;;;;;22.37;13.20;;;;;;;5.41;100.00;98398.13;5040152;28;20507;-58
2021/11/22 04:03:41;;;;;;;19.97;11.80;;;;;;;5.41;100.00;98408.28;5038571;28;20113;-58
2021/11/22 04:06:06;;;;;;;20.33;11.70;;;;;;;5.39;100.00;98409.97;5038012;28;20376;-59
2021/11/22 04:08:32;;;;;;;23.33;13.17;;;;;;;5.44;100.00;98397.25;5034199;28;20060;-55
2021/11/22 04:10:57;;;;;;;23.23;12.67;;;;;;;5.43;100.00;98405.75;5038839;28;20120;-57
2021/11/22 04:13:23;;;;;;;25.00;13.77;;;;;;;5.42;100.00;98404.91;5040911;28;20064;-56
2021/11/22 04:15:49;;;;;;;24.00;14.60;;;;;;;5.44;100.00;98415.03;5034557;28;20124;-58
2021/11/22 04:18:15;;;;;;;20.87;13.07;;;;;;;5.44;100.00;98418.44;5032325;28;20399;-58
2021/11/22 04:20:41;;;;;;;25.73;14.20;;;;;;;5.46;100.00;98415.91;5036932;28;20048;-58
2021/11/22 04:23:07;;;;;;;24.80;14.40;;;;;;;5.48;100.00;98419.28;5036376;28;20467;-57
2021/11/22 04:25:33;;;;;;;28.87;15.47;;;;;;;5.38;100.00;98421.00;5040130;28;20037;-57
2021/11/22 04:27:59;;;;;;;25.90;14.67;;;;;;;5.35;100.00;98426.06;5034296;28;20849;-58
2021/11/22 04:30:25;;;;;;;27.20;15.57;;;;;;;5.35;100.00;98425.22;5039863;28;20560;-57
2021/11/22 04:32:50;;;;;;;26.33;14.53;;;;;;;5.41;100.00;98428.63;5036976;28;20028;-57
2021/11/22 04:35:16;;;;;;;26.80;16.47;;;;;;;5.29;100.00;98433.72;5033660;28;20041;-58
2021/11/22 04:37:43;;;;;;;26.40;15.17;;;;;;;5.37;100.00;98434.56;5034770;28;20136;-56
2021/11/22 04:40:13;;;;;;;23.83;13.53;;;;;;;5.45;100.00;98437.94;5035227;28;20571;-56
2021/11/22 04:42:39;;;;;;;25.77;14.53;;;;;;;5.26;100.00;98433.72;5037541;28;20454;-57
2021/11/22 04:45:06;;;;;;;26.33;13.37;;;;;;;5.29;100.00;98432.88;5034458;28;20136;-59
2021/11/22 04:47:34;;;;;;;23.70;13.90;;;;;;;5.31;100.00;98433.69;5037253;28;20082;-52
2021/11/22 04:49:59;;;;;;;22.57;11.87;;;;;;;5.35;100.00;98431.16;5041468;28;20080;-56
2021/11/22 04:52:25;;;;;;;24.13;12.87;;;;;;;5.26;100.00;98433.72;5033353;28;20060;-56
2021/11/22 04:54:50;;;;;;;23.23;13.00;;;;;;;5.26;100.00;98431.16;5033681;28;20465;-55
2021/11/22 04:57:16;;;;;;;21.27;10.97;;;;;;;5.20;100.00;98435.44;5033733;28;20044;-58
2021/11/22 04:59:42;;;;;;;21.20;11.60;;;;;;;5.30;100.00;98435.44;5036656;28;20352;-57
2021/11/22 05:02:09;;;;;;;19.60;11.57;;;;;;;5.29;100.00;98446.44;5039909;28;20044;-58
2021/11/22 05:04:38;;;;;;;19.23;10.07;;;;;;;5.32;100.00;98454.03;5031595;28;20037;-56
2021/11/22 05:07:04;;;;;;;18.07;11.27;;;;;;;5.35;100.00;98453.19;5033203;28;20033;-56
2021/11/22 05:09:30;;;;;;;18.43;9.83;;;;;;;5.28;100.00;98447.28;5034667;28;20049;-54
2021/11/22 05:11:57;;;;;;;18.70;9.77;;;;;;;5.36;100.00;98445.56;5036425;28;20029;-56
2021/11/22 05:14:23;;;;;;;20.93;10.63;;;;;;;5.38;100.00;98458.28;5034424;28;20037;-57
2021/11/22 05:16:50;;;;;;;18.47;9.27;;;;;;;5.45;100.00;98449.78;5032499;28;20033;-56
2021/11/22 05:19:16;;;;;;;20.73;10.30;;;;;;;5.40;100.00;98452.34;5034644;28;20045;-54
2021/11/22 05:21:41;;;;;;;17.33;11.07;;;;;;;5.44;100.00;98459.09;5034397;28;20072;-53
2021/11/22 05:24:08;;;;;;;20.57;10.60;;;;;;;5.54;100.00;98465.03;5032512;28;20041;-54
2021/11/22 05:26:34;;;;;;;22.87;11.97;;;;;;;5.50;100.00;98450.63;5032616;28;20486;-57
2021/11/22 05:29:02;;;;;;;19.07;10.70;;;;;;;5.56;100.00;98458.22;5033987;28;20049;-54
2021/11/22 05:31:28;;;;;;;18.33;10.97;;;;;;;5.55;100.00;98459.09;5033461;28;20096;-58
2021/11/22 05:33:55;;;;;;;17.13;10.10;;;;;;;5.56;100.00;98460.78;5034721;28;20379;-56
2021/11/22 05:36:21;;;;;;;17.90;9.53;;;;;;;5.51;100.00;98471.00;5037765;28;20113;-55
2021/11/22 05:38:47;;;;;;;18.17;9.40;;;;;;;5.56;100.00;98470.94;5036047;28;20044;-57
2021/11/22 05:41:13;;;;;;;16.50;9.07;;;;;;;5.50;100.00;98471.81;5034987;28;20040;-57
2021/11/22 05:43:38;;;;;;;15.73;9.83;;;;;;;5.46;100.00;98471.84;5035910;28;20043;-57
2021/11/22 05:46:04;;;;;;;18.93;9.47;;;;;;;5.50;100.00;98483.69;5038529;28;20053;-54
2021/11/22 05:48:30;;;;;;;17.47;9.50;;;;;;;5.49;100.00;98482.84;5036487;28;20082;-57
2021/11/22 05:50:56;;;;;;;19.20;11.43;;;;;;;5.51;100.00;98482.84;5032820;28;20127;-55
2021/11/22 05:53:23;;;;;;;19.27;9.63;;;;;;;5.49;100.00;98487.94;5031342;28;20459;-55
2021/11/22 05:55:52;;;;;;;17.67;9.97;;;;;;;5.53;100.00;98489.59;5038157;28;20040;-59
2021/11/22 05:58:19;;;;;;;15.87;8.43;;;;;;;5.55;100.00;98492.16;5037908;28;20036;-57
2021/11/22 06:00:46;;;;;;;15.30;8.60;;;;;;;5.55;100.00;98483.69;5034981;28;20070;-55
2021/11/22 06:03:13;;;;;;;16.67;9.37;;;;;;;5.62;100.00;98487.91;5034600;28;20056;-57
2021/11/22 06:05:38;;;;;;;15.93;9.70;;;;;;;5.59;100.00;98496.41;5038307;28;20722;-58
2021/11/22 06:08:04;;;;;;;16.13;9.13;;;;;;;5.62;100.00;98491.28;5039259;28;20116;-57
2021/11/22 06:10:30;;;;;;;15.33;9.13;;;;;;;5.63;100.00;98498.06;5038620;28;20025;-58
2021/11/22 06:12:56;;;;;;;15.20;8.97;;;;;;;5.57;100.00;98507.41;5035203;28;20471;-58
2021/11/22 06:15:22;;;;;;;15.03;9.20;;;;;;;5.67;100.00;98514.19;5037951;28;20083;-58
2021/11/22 06:17:48;;;;;;;14.43;8.60;;;;;;;5.67;100.00;98519.25;5036947;28;20472;-57
2021/11/22 06:20:14;;;;;;;14.00;9.60;;;;;;;5.61;100.00;98519.25;5038522;28;20124;-58
2021/11/22 06:22:39;;;;;;;22.20;11.93;;;;;;;5.56;100.00;98523.53;5033749;28;20306;-58
2021/11/22 06:25:06;;;;;;;20.43;11.17;;;;;;;5.62;100.00;98519.25;5041736;28;20034;-57
2021/11/22 06:27:32;;;;;;;14.90;9.47;;;;;;;5.60;100.00;98528.56;5038060;28;20021;-56
2021/11/22 06:29:58;;;;;;;14.50;8.87;;;;;;;5.63;100.00;98526.06;5037290;28;20103;-58
2021/11/22 06:32:27;;;;;;;17.23;10.17;;;;;;;5.68;100.00;98524.34;5035079;28;20062;-58
2021/11/22 06:34:53;;;;;;;16.27;9.03;;;;;;;5.68;100.00;98539.63;5038372;28;20464;-58
2021/11/22 06:37:19;;;;;;;14.33;8.40;;;;;;;5.65;100.00;98539.59;5038384;28;20021;-57
2021/11/22 06:39:44;;;;;;;17.03;8.77;;;;;;;5.68;100.00;98533.69;5036259;28;20040;-58
2021/11/22 06:42:11;;;;;;;14.87;8.67;;;;;;;5.71;100.00;98529.44;5038533;28;20087;-57
2021/11/22 06:44:36;;;;;;;15.50;9.00;;;;;;;5.79;100.00;98537.03;5035049;28;20025;-57
2021/11/22 06:47:03;;;;;;;13.33;8.63;;;;;;;5.87;100.00;98538.75;5038654;28;20052;-56
2021/11/22 06:49:28;;;;;;;13.00;7.63;;;;;;;5.84;100.00;98537.88;5036306;28;20040;-55
2021/11/22 06:51:54;;;;;;;17.90;8.93;;;;;;;5.79;100.00;98534.50;5039201;28;20481;-57
2021/11/22 06:54:19;;;;;;;14.47;8.57;;;;;;;5.83;100.00;98536.19;5038620;28;20195;-56
2021/11/22 06:56:45;;;;;;;15.40;9.33;;;;;;;5.71;100.00;98534.50;5040287;28;20040;-58
2021/11/22 06:59:10;;;;;;;14.87;9.10;;;;;;;5.80;100.00;98542.13;5035345;28;20040;-56
2021/11/22 07:01:36;;;;;;;14.90;8.90;;;;;;;5.87;100.00;98535.38;5038704;28;20033;-55
2021/11/22 07:04:01;;;;;;;17.10;9.07;;;;;;;5.74;100.00;98536.19;5040082;28;20041;-58
2021/11/22 07:06:26;;;;;;;16.33;9.83;;;;;;;5.67;100.00;98539.59;5037393;28;20083;-56
2021/11/22 07:08:52;;;;;;;16.20;9.70;;;;;;;5.64;100.00;98552.34;5035455;28;20046;-55
2021/11/22 07:11:17;;;;;;;17.33;9.17;;;;;;;5.61;100.00;98549.78;5037069;28;20399;-57
2021/11/22 07:13:43;;;;;;;17.93;9.50;;;;;;;5.67;100.00;98559.94;5040257;28;20138;-57
2021/11/22 07:16:08;;;;;;;18.53;10.63;;;;;;;5.67;100.00;98554.88;5036972;28;20040;-59
2021/11/22 07:18:34;;;;;;;20.03;10.93;;;;;;;5.64;100.00;98567.59;5032173;28;20598;-60
2021/11/22 07:21:00;;;;;;;18.67;10.50;;;;;;;5.57;100.00;98565.88;5039830;28;20040;-60
2021/11/22 07:23:26;;;;;;;21.03;11.40;;;;;;;5.59;100.00;98570.13;5039439;28;20156;-56
2021/11/22 07:25:53;;;;;;;21.37;12.13;;;;;;;5.55;100.00;98573.53;5036269;28;20098;-59
2021/11/22 07:28:20;;;;;;;20.13;11.87;;;;;;;5.58;100.00;98565.03;5033571;28;20273;-59
2021/11/22 07:30:46;;;;;;;22.70;12.90;;;;;;;5.59;100.00;98564.19;5038794;28;20032;-57
2021/11/22 07:33:12;;;;;;;27.07;12.83;;;;;;;5.63;100.00;98568.44;5038113;28;20030;-60
2021/11/22 07:35:38;;;;;;;23.03;13.40;;;;;;;5.59;100.00;98569.28;5034429;28;20105;-60
2021/11/22 07:38:03;;;;;;;25.33;14.77;;;;;;;5.64;100.00;98577.75;5033081;28;20034;-61
2021/11/22 07:40:29;;;;;;;25.40;13.10;;;;;;;5.59;100.00;98584.53;5040386;28;20025;-60
2021/11/22 07:42:55;;;;;;;21.27;12.90;;;;;;;5.64;100.00;98588.78;5039123;28;20021;-60
2021/11/22 07:45:22;;;;;;;21.73;12.53;;;;;;;5.64;100.00;98587.94;5032365;28;20558;-61
2021/11/22 07:47:49;;;;;;;22.93;12.43;;;;;;;5.68;100.00;98597.25;5035522;28;20108;-61
2021/11/22 07:50:15;;;;;;;23.53;13.00;;;;;;;5.68;100.00;98598.13;5039294;28;20123;-59
2021/11/22 07:52:40;;;;;;;24.90;13.90;;;;;;;5.75;100.00;98606.56;5043198;28;20116;-60
2021/11/22 07:55:06;;;;;;;25.10;13.73;;;;;;;5.75;100.00;98601.47;5038574;28;20064;-60
2021/11/22 07:57:32;;;;;;;21.20;12.43;;;;;;;5.68;100.00;98607.44;5032349;28;20605;-60
2021/11/22 07:59:57;;;;;;;24.97;13.70;;;;;;;5.76;100.00;98610.81;5036659;28;20051;-60
2021/11/22 08:02:22;;;;;;;23.60;14.03;;;;;;;5.82;100.00;98605.72;5036725;28;20033;-58
2021/11/22 08:04:48;;;;;;;23.10;14.70;;;;;;;5.84;100.00;98611.66;5034235;28;20546;-58
2021/11/22 08:07:21;;;;;;;25.43;14.63;;;;;;;5.84;100.00;98632.88;5036312;28;20049;-59
2021/11/22 08:09:57;;;;;;;25.23;14.07;;;;;;;5.88;100.00;98628.66;5036177;28;20045;-59
2021/11/22 08:12:27;;;;;;;22.33;13.33;;;;;;;5.96;100.00;98634.56;5035312;28;20542;-59
2021/11/22 08:15:01;;;;;;;24.13;13.23;;;;;;;6.07;100.00;98640.50;5033514;28;20076;-58
2021/11/22 08:17:29;;;;;;;22.67;13.97;;;;;;;5.98;100.00;98650.72;5034539;28;20033;-60
2021/11/22 08:19:56;;;;;;;21.90;13.07;;;;;;;5.90;100.00;98644.75;5036903;28;20033;-58
2021/11/22 08:22:23;;;;;;;24.43;15.47;;;;;;;5.97;100.00;98652.41;5033834;28;20630;-60
2021/11/22 08:24:53;;;;;;;22.20;13.80;;;;;;;5.98;100.00;98648.16;5033583;28;20432;-60
2021/11/22 08:27:23;;;;;;;23.03;13.37;;;;;;;5.93;100.00;98647.31;5035797;28;20490;-60
2021/11/22 08:29:49;;;;;;;22.47;14.27;;;;;;;5.98;100.00;98655.78;5036577;28;20124;-60
2021/11/22 08:32:16;;;;;;;22.73;13.33;;;;;;;5.87;100.00;98658.31;5034510;28;20083;-61
2021/11/22 08:34:42;;;;;;;25.33;14.27;;;;;;;5.97;100.00;98654.94;5034167;28;20120;-60
2021/11/22 08:37:08;;;;;;;25.47;14.97;;;;;;;6.00;100.00;98656.63;5037144;28;20135;-61
2021/11/22 08:39:33;;;;;;;25.27;14.00;;;;;;;6.02;100.00;98656.63;5036160;28;20052;-58
2021/11/22 08:41:59;;;;;;;26.33;14.83;;;;;;;6.05;100.00;98659.16;5033449;28;20479;-59
2021/11/22 08:44:25;;;;;;;24.77;14.23;;;;;;;6.05;100.00;98667.66;5035191;28;20070;-58
2021/11/22 08:46:50;;;;;;;28.17;15.60;;;;;;;6.06;100.00;98668.50;5033923;28;20516;-59
2021/11/22 08:49:17;;;;;;;26.60;14.37;;;;;;;6.16;100.00;98667.63;5037257;28;20112;-59
2021/11/22 08:51:44;;;;;;;22.47;13.47;;;;;;;6.09;100.00;98665.94;5034839;28;20492;-59
2021/11/22 08:54:09;;;;;;;23.67;13.53;;;;;;;6.15;100.00;98669.34;5033247;28;20132;-58
2021/11/22 08:56:35;;;;;;;22.00;12.10;;;;;;;6.18;100.00;98671.91;5036747;28;20112;-58
2021/11/22 08:59:00;;;;;;;25.93;13.57;;;;;;;6.22;100.00;98665.94;5033684;28;20353;-58
2021/11/22 09:01:27;;;;;;;21.83;13.90;;;;;;;6.24;100.00;98660.84;5032189;28;20394;-58
2021/11/22 09:03:54;;;;;;;21.93;13.30;;;;;;;6.31;100.00;98655.75;5034967;28;20064;-56
2021/11/22 09:06:20;;;;;;;25.57;14.97;;;;;;;6.37;100.00;98649.78;5037111;28;20033;-58
2021/11/22 09:08:46;;;;;;;25.83;14.37;;;;;;;6.33;100.00;98660.81;5036933;28;20036;-59
2021/11/22 09:11:12;;;;;;;24.13;15.07;;;;;;;6.24;100.00;98659.13;5031954;28;20463;-59
2021/11/22 09:13:39;;;;;;;24.20;13.83;;;;;;;6.37;100.00;98677.78;5033400;28;20041;-59
2021/11/22 09:16:05;;;;;;;22.33;12.70;;;;;;;6.42;100.00;98673.53;5039478;28;20033;-58
2021/11/22 09:18:30;;;;;;;22.37;13.57;;;;;;;6.41;100.00;98672.69;5033452;28;20091;-59
2021/11/22 09:20:55;;;;;;;25.00;14.00;;;;;;;6.35;100.00;98665.09;5031343;28;20041;-59
2021/11/22 09:23:21;;;;;;;22.17;13.03;;;;;;;6.36;100.00;98678.66;5037509;28;20112;-59
2021/11/22 09:25:46;;;;;;;21.40;13.30;;;;;;;6.42;100.00;98668.44;5034471;28;20446;-58
2021/11/22 09:28:12;;;;;;;20.67;11.77;;;;;;;6.54;100.00;98677.75;5037266;28;20032;-56
2021/11/22 09:30:38;;;;;;;21.77;12.77;;;;;;;6.52;100.00;98680.31;5035746;28;20029;-59
2021/11/22 09:33:04;;;;;;;22.60;14.03;;;;;;;6.48;100.00;98675.25;5033285;28;20499;-59
2021/11/22 09:35:30;;;;;;;21.30;12.63;;;;;;;6.46;100.00;98674.38;5034042;28;20475;-59
2021/11/22 09:37:56;;;;;;;25.87;14.50;;;;;;;6.46;100.00;98682.03;5037819;28;20043;-58
2021/11/22 09:40:22;;;;;;;22.60;12.63;;;;;;;6.28;100.00;98685.47;5041518;28;20444;-54
2021/11/22 09:42:48;;;;;;;23.57;14.73;;;;;;;6.28;100.00;98673.56;5035744;28;20116;-53
2021/11/22 09:45:16;;;;;;;24.53;13.47;;;;;;;6.40;100.00;98675.25;5037323;28;20057;-57
2021/11/22 09:47:42;;;;;;;24.30;14.60;;;;;;;6.51;100.00;98682.88;5037475;28;20112;-55
2021/11/22 09:50:08;;;;;;;22.37;13.50;;;;;;;6.42;100.00;98676.09;5037469;28;20120;-60
2021/11/22 09:52:35;;;;;;;21.40;12.90;;;;;;;6.41;100.00;98671.84;5040077;28;20045;-59
2021/11/22 09:55:00;;;;;;;22.43;13.73;;;;;;;6.37;100.00;98670.16;5038751;28;20538;-58
2021/11/22 09:57:26;;;;;;;23.00;14.73;;;;;;;6.46;100.00;98674.38;5036594;28;20029;-60
2021/11/22 09:59:51;;;;;;;25.57;14.30;;;;;;;6.53;100.00;98671.84;5037022;28;20041;-58
2021/11/22 10:02:17;;;;;;;22.33;13.20;;;;;;;6.42;100.00;98666.75;5039546;28;20091;-59
2021/11/22 10:04:42;;;;;;;22.33;12.80;;;;;;;6.41;100.00;98671.84;5038656;28;20037;-58
2021/11/22 10:07:10;;;;;;;25.20;14.13;;;;;;;6.51;100.00;98665.88;5033359;28;20037;-59
2021/11/22 10:09:38;;;;;;;22.00;13.27;;;;;;;6.49;100.00;98670.16;5035271;28;20633;-59
2021/11/22 10:12:10;;;;;;;21.13;13.13;;;;;;;6.59;100.00;98665.88;5038580;28;20493;-60
2021/11/22 10:14:43;;;;;;;24.93;15.03;;;;;;;6.64;100.00;98666.72;5038464;28;20359;-56
2021/11/22 10:17:24;;;;;;;23.90;13.97;;;;;;;6.52;100.00;98671.84;5034792;28;20040;-57
2021/11/22 10:20:11;;;;;;;22.87;13.30;;;;;;;6.46;100.00;98667.59;5035687;28;20041;-58
2021/11/22 10:23:09;;;;;;;20.03;12.43;;;;;;;6.49;100.00;98674.41;5038064;28;20159;-56
2021/11/22 10:25:40;;;;;;;23.23;14.67;;;;;;;6.57;100.00;98676.06;5035698;28;20207;-58
2021/11/22 10:28:13;;;;;;;20.73;13.03;;;;;;;6.50;100.00;98689.66;5037479;28;20030;-58
2021/11/22 10:30:45;;;;;;;24.97;13.93;;;;;;;6.53;100.00;98674.38;5037286;28;20102;-59
2021/11/22 10:33:13;;;;;;;25.73;14.37;;;;;;;6.33;100.00;98679.50;5038190;28;20029;-59
2021/11/22 10:35:40;;;;;;;22.63;13.87;;;;;;;6.48;100.00;98680.34;5033780;28;20479;-57
2021/11/22 10:38:14;;;;;;;22.33;14.37;;;;;;;6.50;100.00;98679.47;5034751;28;20040;-57
2021/11/22 10:40:44;;;;;;;22.00;13.97;;;;;;;6.58;100.00;98692.19;5037160;28;20095;-59
2021/11/22 10:43:09;;;;;;;23.50;14.90;;;;;;;6.53;100.00;98684.56;5036643;28;20255;-59
2021/11/22 10:45:39;;;;;;;24.80;15.37;;;;;;;6.46;100.00;98687.97;5033540;28;20439;-59
2021/11/22 10:48:37;;;;;;;22.43;14.53;;;;;;;6.49;100.00;98702.41;5034180;28;20104;-60
2021/11/22 10:51:22;;;;;;;24.37;14.17;;;;;;;6.35;100.00;98698.19;5036593;28;20053;-57
2021/11/22 10:53:55;;;;;;;25.50;14.67;;;;;;;6.32;100.00;98702.44;5036178;28;20078;-60
2021/11/22 10:56:24;;;;;;;27.90;15.53;;;;;;;6.24;100.00;98702.41;5034401;28;20029;-57
2021/11/22 10:58:50;;;;;;;28.03;15.77;;;;;;;6.45;100.00;98700.72;5037970;28;20116;-59
2021/11/22 11:01:23;;;;;;;23.07;13.97;;;;;;;6.35;100.00;98703.28;5038762;28;20043;-60
2021/11/22 11:03:56;;;;;;;24.07;14.03;;;;;;;6.38;100.00;98710.03;5033251;28;20128;-60
2021/11/22 11:06:37;;;;;;;24.63;14.67;;;;;;;6.46;100.00;98704.94;5034620;28;20160;-61
2021/11/22 11:09:05;;;;;;;27.50;14.90;;;;;;;6.45;100.00;98700.72;5039937;28;20423;-61
2021/11/22 11:11:30;;;;;;;27.10;14.97;;;;;;;6.42;100.00;98704.94;5035401;28;20416;-60
2021/11/22 11:13:56;;;;;;;26.33;15.00;;;;;;;6.36;100.00;98709.22;5035008;28;20083;-57
2021/11/22 11:16:21;;;;;;;25.67;14.53;;;;;;;6.43;100.00;98711.75;5033926;28;20119;-61
2021/11/22 11:19:19;;;;;;;30.70;16.40;;;;;;;6.40;100.00;98705.81;5036695;28;20022;-64